Aurora, Iowa
Current Conditions -  °F | °C
As of 6:15 AM on Monday 26 Jan 2015 (Local Time) from KOLZ Reporting Station
Unknown Precip Unknown Precip  
Wind Chill: 10°   Ceiling: 1500
Heat Index: 23°   Visibility: 2.5mi
Dew Point: 19°   Wind: 15mph
Humidity: 86%   Direction: 180°S
Pressure: 29.88"   Gusts: NA
Location:  42.62°N, 91.73°W
Report Text: KOLZ 261215Z AUTO 18013KT 2 1/2SM -UP FEW003 OVC015 M05/M07 A2988 RMK AO2
Loading
Personal Weather Stations






























Interactive Weather Map New forecast layout! Learn more

10-Day Weather Forecast

Advertisements
Track Severe Weather on mobile